Time;durP1;ratioP1;P1;durP2;ratioP2;P2;SDS_P1;SDS_P2;PMS_P1;PMS_P2;Temp;Humidity;BMP_temperature;BMP_pressure;BME280_temperature;BME280_humidity;BME280_pressure;Samples;Min_cycle;Max_cycle;Signal;HPM_P1;HPM_P2
2022/05/26 00:00:56;;;;;;;3.80;1.30;;;;;;;;;;4962132;28;20800;-72
2022/05/26 00:03:22;;;;;;;3.00;1.33;;;;;;;;;;4965802;28;20305;-73
2022/05/26 00:05:48;;;;;;;1.30;1.20;;;;;;;;;;4959298;28;20216;-73
2022/05/26 00:08:14;;;;;;;2.60;1.50;;;;;;;;;;4943296;28;20688;-72
2022/05/26 00:10:40;;;;;;;1.90;1.20;;;;;;;;;;4965269;28;20773;-72
2022/05/26 00:13:06;;;;;;;1.50;1.07;;;;;;;;;;4967620;28;20190;-72
2022/05/26 00:15:32;;;;;;;2.50;1.27;;;;;;;;;;4965678;28;20194;-72
2022/05/26 00:17:58;;;;;;;2.77;1.43;;;;;;;;;;4973414;28;20198;-72
2022/05/26 00:20:24;;;;;;;1.70;1.33;;;;;;;;;;4946947;28;20194;-72
2022/05/26 00:22:50;;;;;;;1.30;1.20;;;;;;;;;;4943649;28;20194;-72
2022/05/26 00:25:16;;;;;;;1.83;1.43;;;;;;;;;;4946634;28;20237;-72
2022/05/26 00:27:42;;;;;;;3.30;1.60;;;;;;;;;;4946627;28;20199;-73
2022/05/26 00:30:09;;;;;;;1.40;1.10;;;;;;;;;;4935015;28;20203;-73
2022/05/26 00:32:34;;;;;;;1.30;1.20;;;;;;;;;;4959749;28;20202;-73
2022/05/26 00:35:00;;;;;;;3.87;1.30;;;;;;;;;;4965358;28;20357;-73
2022/05/26 00:37:26;;;;;;;1.73;1.20;;;;;;;;;;4963575;28;20670;-72
2022/05/26 00:39:52;;;;;;;3.03;1.30;;;;;;;;;;4946329;28;20195;-72
2022/05/26 00:42:18;;;;;;;3.47;1.30;;;;;;;;;;4943598;28;20190;-72
2022/05/26 00:44:44;;;;;;;1.23;1.17;;;;;;;;;;4964098;28;20221;-73
2022/05/26 00:47:12;;;;;;;1.17;1.03;;;;;;;;;;4952969;28;20541;-72
2022/05/26 00:49:43;;;;;;;2.07;1.13;;;;;;;;;;4976142;28;20219;-73
2022/05/26 00:52:10;;;;;;;2.97;1.30;;;;;;;;;;4961595;28;20277;-73
2022/05/26 00:54:35;;;;;;;2.27;1.23;;;;;;;;;;4964142;28;20222;-72
2022/05/26 00:57:03;;;;;;;2.37;1.27;;;;;;;;;;4943341;28;20332;-73
2022/05/26 00:59:29;;;;;;;3.33;1.30;;;;;;;;;;4942170;28;20195;-73
2022/05/26 01:01:55;;;;;;;2.87;1.40;;;;;;;;;;4952201;28;20190;-72
2022/05/26 01:04:22;;;;;;;3.27;1.20;;;;;;;;;;4946433;28;20582;-72
2022/05/26 01:06:49;;;;;;;2.53;1.17;;;;;;;;;;4968231;28;20218;-73
2022/05/26 01:09:15;;;;;;;2.00;1.13;;;;;;;;;;4967352;28;20194;-73
2022/05/26 01:11:41;;;;;;;2.20;1.10;;;;;;;;;;4948558;28;20843;-73
2022/05/26 01:14:09;;;;;;;1.73;1.10;;;;;;;;;;4973392;28;21070;-73
2022/05/26 01:16:38;;;;;;;3.20;1.40;;;;;;;;;;4975761;28;20186;-73
2022/05/26 01:19:22;;;;;;;1.20;1.10;;;;;;;;;;4971547;28;20626;-73
2022/05/26 01:21:53;;;;;;;2.50;1.10;;;;;;;;;;4965044;28;20194;-73
2022/05/26 01:24:24;;;;;;;2.00;1.10;;;;;;;;;;4966632;28;20266;-73
2022/05/26 01:27:05;;;;;;;1.63;1.00;;;;;;;;;;4931400;28;20213;-73
2022/05/26 01:29:34;;;;;;;2.50;1.10;;;;;;;;;;4969839;28;20262;-72
2022/05/26 01:32:16;;;;;;;1.50;1.10;;;;;;;;;;4960612;28;20252;-73
2022/05/26 01:34:45;;;;;;;3.37;1.13;;;;;;;;;;4964070;28;20199;-73
2022/05/26 01:37:12;;;;;;;2.83;1.20;;;;;;;;;;4940732;28;20750;-73
2022/05/26 01:39:40;;;;;;;4.00;1.10;;;;;;;;;;4968057;28;20210;-73
2022/05/26 01:42:06;;;;;;;3.40;1.33;;;;;;;;;;4945731;28;20257;-73
2022/05/26 01:44:45;;;;;;;2.00;1.10;;;;;;;;;;4969712;28;20210;-73
2022/05/26 01:47:14;;;;;;;1.60;1.20;;;;;;;;;;4955331;28;20190;-73
2022/05/26 01:49:42;;;;;;;1.77;1.40;;;;;;;;;;4973760;28;20250;-73
2022/05/26 01:52:15;;;;;;;2.23;1.30;;;;;;;;;;4965591;28;20187;-73
2022/05/26 01:54:57;;;;;;;4.30;1.13;;;;;;;;;;4949286;28;20190;-73
2022/05/26 01:57:24;;;;;;;3.43;1.10;;;;;;;;;;4949630;28;20282;-73
2022/05/26 01:59:51;;;;;;;2.40;1.07;;;;;;;;;;4968694;28;20244;-73
2022/05/26 02:02:19;;;;;;;1.50;1.10;;;;;;;;;;4963046;28;20191;-73
2022/05/26 02:04:45;;;;;;;1.97;1.17;;;;;;;;;;4960527;28;20227;-73
2022/05/26 02:07:15;;;;;;;2.47;1.00;;;;;;;;;;4957122;28;20194;-73
2022/05/26 02:09:41;;;;;;;1.60;1.17;;;;;;;;;;4943674;28;20285;-73
2022/05/26 02:12:07;;;;;;;2.40;1.10;;;;;;;;;;4950110;28;20272;-73
2022/05/26 02:14:34;;;;;;;0.97;0.93;;;;;;;;;;4967489;28;20198;-72
2022/05/26 02:17:20;;;;;;;1.40;1.30;;;;;;;;;;4953704;28;20189;-73
2022/05/26 02:19:51;;;;;;;6.50;1.03;;;;;;;;;;4962669;28;20210;-72
2022/05/26 02:22:21;;;;;;;1.83;1.40;;;;;;;;;;4973064;28;20973;-72
2022/05/26 02:25:00;;;;;;;1.50;1.10;;;;;;;;;;4963955;28;20245;-72
2022/05/26 02:27:26;;;;;;;1.10;1.00;;;;;;;;;;4977705;28;20220;-72
2022/05/26 02:29:53;;;;;;;1.43;1.07;;;;;;;;;;4955740;28;20293;-72
2022/05/26 02:32:20;;;;;;;2.00;1.40;;;;;;;;;;4951808;28;20195;-72
2022/05/26 02:34:46;;;;;;;2.77;1.10;;;;;;;;;;4974932;28;20193;-72
2022/05/26 02:37:12;;;;;;;3.50;1.27;;;;;;;;;;4956566;28;20183;-73
2022/05/26 02:39:38;;;;;;;3.03;1.30;;;;;;;;;;4971779;28;20194;-72
2022/05/26 02:42:04;;;;;;;3.53;1.20;;;;;;;;;;4953851;28;20285;-72
2022/05/26 02:44:30;;;;;;;1.30;1.20;;;;;;;;;;4965087;28;20207;-72
2022/05/26 02:46:59;;;;;;;1.60;1.17;;;;;;;;;;4969100;28;20187;-72
2022/05/26 02:49:25;;;;;;;1.33;1.00;;;;;;;;;;4970691;28;21056;-72
2022/05/26 02:52:10;;;;;;;2.23;1.27;;;;;;;;;;4955279;28;20183;-73
2022/05/26 02:54:36;;;;;;;2.37;1.30;;;;;;;;;;4975822;28;20524;-73
2022/05/26 02:57:23;;;;;;;1.63;1.23;;;;;;;;;;4978289;28;20186;-73
2022/05/26 02:59:50;;;;;;;3.23;1.43;;;;;;;;;;4954844;28;20183;-73
2022/05/26 03:02:20;;;;;;;1.33;1.20;;;;;;;;;;4973188;28;20531;-73
2022/05/26 03:04:47;;;;;;;2.30;1.30;;;;;;;;;;4950363;28;20229;-72
2022/05/26 03:07:15;;;;;;;2.93;1.20;;;;;;;;;;4971540;28;20265;-72
2022/05/26 03:09:41;;;;;;;2.50;1.50;;;;;;;;;;4981511;28;20214;-72
2022/05/26 03:12:16;;;;;;;3.03;1.30;;;;;;;;;;4959066;28;20187;-72
2022/05/26 03:14:42;;;;;;;3.17;1.40;;;;;;;;;;4957951;28;21370;-72
2022/05/26 03:17:08;;;;;;;2.10;1.53;;;;;;;;;;4968456;28;20655;-72
2022/05/26 03:19:34;;;;;;;2.57;1.43;;;;;;;;;;4979324;28;20189;-73
2022/05/26 03:22:00;;;;;;;3.07;1.60;;;;;;;;;;4969676;28;20220;-73
2022/05/26 03:24:26;;;;;;;2.67;1.40;;;;;;;;;;4975649;28;20238;-72
2022/05/26 03:26:52;;;;;;;2.43;1.67;;;;;;;;;;4972331;28;20610;-72
2022/05/26 03:29:17;;;;;;;2.73;1.57;;;;;;;;;;4975958;28;21683;-72
2022/05/26 03:31:45;;;;;;;1.83;1.60;;;;;;;;;;4975586;28;20264;-72
2022/05/26 03:42:42;;;;;;;3.87;1.63;;;;;;;;;;4978097;28;20286;-72
2022/05/26 03:45:09;;;;;;;2.87;1.90;;;;;;;;;;4970116;28;20214;-73
2022/05/26 03:47:34;;;;;;;3.67;1.67;;;;;;;;;;4963100;28;20195;-73
2022/05/26 03:50:00;;;;;;;2.17;1.70;;;;;;;;;;4973031;28;20192;-73
2022/05/26 03:52:26;;;;;;;3.23;2.20;;;;;;;;;;4976948;28;20187;-72
2022/05/26 03:54:52;;;;;;;2.70;1.80;;;;;;;;;;4974158;28;20563;-73
2022/05/26 03:57:22;;;;;;;3.73;1.80;;;;;;;;;;4977918;28;20187;-73
2022/05/26 03:59:48;;;;;;;4.50;2.33;;;;;;;;;;4977745;28;20203;-73
2022/05/26 04:02:14;;;;;;;6.37;2.00;;;;;;;;;;4968209;28;20210;-72
2022/05/26 04:04:40;;;;;;;3.93;1.80;;;;;;;;;;4967774;28;20754;-72
2022/05/26 04:07:06;;;;;;;5.23;2.33;;;;;;;;;;4973162;28;20190;-72
2022/05/26 04:09:32;;;;;;;5.10;2.00;;;;;;;;;;4971867;28;20191;-72
2022/05/26 04:11:57;;;;;;;3.03;2.03;;;;;;;;;;4975266;28;20187;-72
2022/05/26 04:14:23;;;;;;;3.07;2.10;;;;;;;;;;4975323;28;20198;-72
2022/05/26 04:16:49;;;;;;;5.53;2.23;;;;;;;;;;4971717;28;20198;-72
2022/05/26 04:19:15;;;;;;;3.07;2.00;;;;;;;;;;4972065;28;20186;-72
2022/05/26 04:22:15;;;;;;;5.47;2.03;;;;;;;;;;4978866;28;20209;-72
2022/05/26 04:24:27;;;;;;;4.43;2.00;;;;;;;;;;4954615;28;20273;-72
2022/05/26 04:26:53;;;;;;;5.43;2.23;;;;;;;;;;4957216;28;20284;-72
2022/05/26 04:29:23;;;;;;;3.60;2.13;;;;;;;;;;4957506;28;20201;-72
2022/05/26 04:31:49;;;;;;;4.43;2.30;;;;;;;;;;4954104;28;20637;-72
2022/05/26 04:34:15;;;;;;;6.40;2.30;;;;;;;;;;4975001;28;20291;-72
2022/05/26 04:36:41;;;;;;;4.00;2.33;;;;;;;;;;4954235;28;20722;-73
2022/05/26 04:39:07;;;;;;;4.67;2.03;;;;;;;;;;4978452;28;20641;-73
2022/05/26 04:41:33;;;;;;;5.00;2.60;;;;;;;;;;4959187;28;20648;-72
2022/05/26 04:43:59;;;;;;;4.77;2.47;;;;;;;;;;4974421;28;20190;-72
2022/05/26 04:46:25;;;;;;;4.93;2.53;;;;;;;;;;4967083;28;20198;-72
2022/05/26 04:48:51;;;;;;;5.80;2.70;;;;;;;;;;4973687;28;20671;-72
2022/05/26 04:51:18;;;;;;;4.63;2.27;;;;;;;;;;4973998;28;21769;-72
2022/05/26 04:53:44;;;;;;;4.93;2.03;;;;;;;;;;4956855;28;20765;-72
2022/05/26 04:56:10;;;;;;;6.57;2.70;;;;;;;;;;4976771;28;20676;-72
2022/05/26 04:58:36;;;;;;;6.77;2.47;;;;;;;;;;4959477;28;20185;-72
2022/05/26 05:01:11;;;;;;;5.70;2.57;;;;;;;;;;4946147;28;20194;-73
2022/05/26 05:03:36;;;;;;;6.27;2.80;;;;;;;;;;4963994;28;20216;-72
2022/05/26 05:06:02;;;;;;;5.40;2.60;;;;;;;;;;4971401;28;20302;-72
2022/05/26 05:08:28;;;;;;;5.77;3.10;;;;;;;;;;4952639;28;20277;-73
2022/05/26 05:10:54;;;;;;;7.77;3.23;;;;;;;;;;4964912;28;20190;-72
2022/05/26 05:13:20;;;;;;;5.57;3.27;;;;;;;;;;4974725;28;20188;-72
2022/05/26 05:15:52;;;;;;;7.17;3.10;;;;;;;;;;4971533;28;20837;-72
2022/05/26 05:18:18;;;;;;;7.97;2.90;;;;;;;;;;4967762;28;20370;-72
2022/05/26 05:20:44;;;;;;;5.60;3.23;;;;;;;;;;4972276;28;20205;-73
2022/05/26 05:23:13;;;;;;;5.93;3.10;;;;;;;;;;4975051;28;20693;-72
2022/05/26 05:25:40;;;;;;;5.17;3.03;;;;;;;;;;4976528;28;20237;-72
2022/05/26 05:28:13;;;;;;;8.13;3.33;;;;;;;;;;4974979;28;20202;-72
2022/05/26 05:30:43;;;;;;;8.30;3.23;;;;;;;;;;4976787;28;20234;-72
2022/05/26 05:33:11;;;;;;;6.77;2.73;;;;;;;;;;4976422;28;20615;-72
2022/05/26 05:35:43;;;;;;;5.53;3.13;;;;;;;;;;4943195;28;20194;-72
2022/05/26 05:38:08;;;;;;;9.20;3.23;;;;;;;;;;4972881;28;20190;-72
2022/05/26 05:40:35;;;;;;;5.97;2.97;;;;;;;;;;4970537;28;20924;-73
2022/05/26 05:43:01;;;;;;;7.60;3.30;;;;;;;;;;4966556;28;20187;-72
2022/05/26 05:45:27;;;;;;;7.07;3.23;;;;;;;;;;4956929;28;20229;-72
2022/05/26 05:47:52;;;;;;;6.27;3.20;;;;;;;;;;4951679;28;20911;-73
2022/05/26 05:50:18;;;;;;;5.30;3.30;;;;;;;;;;4976448;28;20324;-73
2022/05/26 05:52:44;;;;;;;7.57;3.30;;;;;;;;;;4969859;28;20198;-72
2022/05/26 05:55:10;;;;;;;7.57;3.80;;;;;;;;;;4952318;28;20194;-72
2022/05/26 05:57:37;;;;;;;10.40;3.70;;;;;;;;;;4968076;28;20191;-72
2022/05/26 06:00:04;;;;;;;11.33;3.83;;;;;;;;;;4957672;28;20195;-72
2022/05/26 06:02:29;;;;;;;6.07;3.50;;;;;;;;;;4972453;28;20190;-72
2022/05/26 06:04:57;;;;;;;8.83;3.10;;;;;;;;;;4967796;28;20705;-72
2022/05/26 06:07:23;;;;;;;7.60;3.33;;;;;;;;;;4956246;28;20345;-72
2022/05/26 06:09:49;;;;;;;8.97;3.40;;;;;;;;;;4970617;28;20211;-72
2022/05/26 06:12:16;;;;;;;6.70;3.80;;;;;;;;;;4968339;28;20187;-72
2022/05/26 06:14:42;;;;;;;12.77;4.13;;;;;;;;;;4955388;28;20190;-72
2022/05/26 06:17:08;;;;;;;9.83;4.13;;;;;;;;;;4964367;28;20260;-72
2022/05/26 06:19:34;;;;;;;8.70;4.00;;;;;;;;;;4973380;28;20190;-72
2022/05/26 06:22:05;;;;;;;9.17;3.57;;;;;;;;;;4966374;28;20198;-73
2022/05/26 06:24:31;;;;;;;8.10;3.50;;;;;;;;;;4970024;28;20241;-72
2022/05/26 06:26:57;;;;;;;8.07;3.57;;;;;;;;;;4968116;28;20183;-73
2022/05/26 06:37:38;;;;;;;8.57;4.03;;;;;;;;;;4963227;28;20237;-73
2022/05/26 06:40:05;;;;;;;6.77;3.80;;;;;;;;;;4952749;28;20182;-72
2022/05/26 06:42:31;;;;;;;6.97;4.23;;;;;;;;;;4951697;28;20182;-73
2022/05/26 06:44:57;;;;;;;10.27;3.90;;;;;;;;;;4950663;28;20596;-73
2022/05/26 06:47:23;;;;;;;6.93;3.40;;;;;;;;;;4970268;28;20199;-73
2022/05/26 06:49:49;;;;;;;7.23;4.03;;;;;;;;;;4970527;28;20182;-73
2022/05/26 06:52:15;;;;;;;8.70;4.10;;;;;;;;;;4964165;28;20326;-72
2022/05/26 06:54:43;;;;;;;5.60;3.80;;;;;;;;;;4958693;28;20611;-73
2022/05/26 06:57:09;;;;;;;7.93;3.70;;;;;;;;;;4944857;28;20653;-73
2022/05/26 06:59:35;;;;;;;9.27;3.47;;;;;;;;;;4963405;28;20195;-72
2022/05/26 07:02:01;;;;;;;5.93;3.77;;;;;;;;;;4961488;28;20632;-73
2022/05/26 07:04:27;;;;;;;7.03;3.10;;;;;;;;;;4969318;28;20218;-72
2022/05/26 07:06:54;;;;;;;6.47;3.10;;;;;;;;;;4956565;28;20182;-73
2022/05/26 07:09:23;;;;;;;6.10;3.13;;;;;;;;;;4968549;28;20187;-73
2022/05/26 07:11:50;;;;;;;8.20;2.83;;;;;;;;;;4977311;28;20194;-72
2022/05/26 07:14:16;;;;;;;7.30;3.70;;;;;;;;;;4958005;28;20190;-72
2022/05/26 07:16:44;;;;;;;6.23;2.90;;;;;;;;;;4977771;28;20285;-73
2022/05/26 07:19:10;;;;;;;4.10;2.40;;;;;;;;;;4953440;28;20256;-73
2022/05/26 07:21:35;;;;;;;7.20;3.03;;;;;;;;;;4972921;28;20192;-73
2022/05/26 07:24:01;;;;;;;7.17;3.33;;;;;;;;;;4970135;28;20234;-73
2022/05/26 07:26:28;;;;;;;6.25;2.95;;;;;;;;;;4974752;28;21804;-72
2022/05/26 07:28:54;;;;;;;7.53;3.22;;;;;;;;;;4958992;28;20278;-73
2022/05/26 07:31:20;;;;;;;7.47;3.53;;;;;;;;;;4963339;28;20225;-73
2022/05/26 07:33:47;;;;;;;5.68;2.60;;;;;;;;;;4971168;28;20198;-73
2022/05/26 07:41:42;;;;;;;7.25;3.60;;;;;;;;;;4972843;28;20213;-73
2022/05/26 07:44:08;;;;;;;6.53;3.20;;;;;;;;;;4969632;28;20191;-66
2022/05/26 07:46:34;;;;;;;4.60;3.08;;;;;;;;;;4970491;28;20611;-66
2022/05/26 07:49:00;;;;;;;6.03;3.60;;;;;;;;;;4971614;28;20190;-67
2022/05/26 07:51:26;;;;;;;7.57;3.60;;;;;;;;;;4963252;28;20186;-66
2022/05/26 07:53:52;;;;;;;6.13;3.67;;;;;;;;;;4969849;28;21242;-67
2022/05/26 07:56:18;;;;;;;8.10;3.92;;;;;;;;;;4956564;28;20222;-66
2022/05/26 07:58:44;;;;;;;6.97;3.17;;;;;;;;;;4971898;28;20749;-66
2022/05/26 08:01:10;;;;;;;8.65;3.50;;;;;;;;;;4971544;28;20174;-66
2022/05/26 08:03:37;;;;;;;5.60;3.20;;;;;;;;;;4960514;28;20269;-66
2022/05/26 08:06:03;;;;;;;6.18;3.25;;;;;;;;;;4954901;28;20215;-67
2022/05/26 08:08:31;;;;;;;7.53;4.03;;;;;;;;;;4967996;28;20682;-67
2022/05/26 08:10:57;;;;;;;6.65;2.90;;;;;;;;;;4966631;28;20253;-66
2022/05/26 08:13:23;;;;;;;5.50;3.08;;;;;;;;;;4964087;28;20851;-67
2022/05/26 08:15:49;;;;;;;5.28;3.20;;;;;;;;;;4968220;28;20239;-66
2022/05/26 08:18:15;;;;;;;6.57;3.58;;;;;;;;;;4971748;28;20659;-66
2022/05/26 08:20:41;;;;;;;5.45;3.38;;;;;;;;;;4952050;28;20190;-66
2022/05/26 08:23:07;;;;;;;7.85;3.38;;;;;;;;;;4971013;28;20230;-66
2022/05/26 08:25:34;;;;;;;9.13;3.60;;;;;;;;;;4971290;28;20872;-66
2022/05/26 08:28:00;;;;;;;5.38;3.25;;;;;;;;;;4958035;28;20197;-65
2022/05/26 08:30:26;;;;;;;6.80;3.22;;;;;;;;;;4972417;28;20674;-65
2022/05/26 08:32:53;;;;;;;6.38;3.45;;;;;;;;;;4971539;28;20183;-65
2022/05/26 08:35:19;;;;;;;6.68;3.08;;;;;;;;;;4973594;28;20269;-66
2022/05/26 08:37:45;;;;;;;6.53;2.70;;;;;;;;;;4975299;28;20197;-65
2022/05/26 08:40:24;;;;;;;5.07;2.83;;;;;;;;;;4972120;28;20646;-66
2022/05/26 08:42:50;;;;;;;6.20;3.00;;;;;;;;;;4954397;28;20182;-66
2022/05/26 08:45:16;;;;;;;5.78;3.30;;;;;;;;;;4971594;28;20216;-66
2022/05/26 08:47:43;;;;;;;8.90;3.65;;;;;;;;;;4971701;28;20838;-66
2022/05/26 08:50:28;;;;;;;3.92;2.92;;;;;;;;;;4965578;28;21031;-66
2022/05/26 08:52:57;;;;;;;7.82;3.13;;;;;;;;;;4975207;28;20213;-67
2022/05/26 08:55:24;;;;;;;6.03;2.67;;;;;;;;;;4975004;28;20190;-65
2022/05/26 08:57:51;;;;;;;5.93;3.00;;;;;;;;;;4973379;28;20187;-66
2022/05/26 09:00:18;;;;;;;4.03;2.75;;;;;;;;;;4970591;28;20199;-66
2022/05/26 09:02:45;;;;;;;6.50;2.90;;;;;;;;;;4974527;23;20200;-59
2022/05/26 09:05:15;;;;;;;5.82;2.97;;;;;;;;;;5004888;28;20229;-60
2022/05/26 09:13:26;;;;;;;6.28;2.90;;;;;;;;;;5012194;28;20192;-60
2022/05/26 09:15:52;;;;;;;8.10;3.10;;;;;;;;;;5011809;28;20614;-59
2022/05/26 09:18:19;;;;;;;7.53;3.30;;;;;;;;;;4998666;28;20184;-59
2022/05/26 09:20:46;;;;;;;4.32;2.60;;;;;;;;;;5003892;28;20977;-60
2022/05/26 09:23:31;;;;;;;7.32;2.72;;;;;;;;;;5001175;28;20189;-59
2022/05/26 09:26:04;;;;;;;4.07;2.28;;;;;;;;;;5013571;28;20205;-59
2022/05/26 09:28:45;;;;;;;4.50;2.60;;;;;;;;;;4982667;28;20217;-59
2022/05/26 09:31:27;;;;;;;5.40;2.83;;;;;;;;;;4989519;28;20173;-60
2022/05/26 09:34:12;;;;;;;5.88;2.85;;;;;;;;;;4985554;28;20782;-59
2022/05/26 09:37:00;;;;;;;6.13;2.58;;;;;;;;;;4988295;28;20251;-59
2022/05/26 09:39:30;;;;;;;8.80;3.15;;;;;;;;;;4980325;28;20189;-61
2022/05/26 09:41:57;;;;;;;7.80;2.78;;;;;;;;;;4975845;28;20194;-60
2022/05/26 09:44:25;;;;;;;5.53;2.42;;;;;;;;;;4986476;28;20194;-60
2022/05/26 09:46:51;;;;;;;6.50;2.80;;;;;;;;;;4973228;28;20175;-60
2022/05/26 09:49:17;;;;;;;5.22;2.20;;;;;;;;;;4986496;28;20182;-60
2022/05/26 09:51:44;;;;;;;5.25;2.60;;;;;;;;;;4988177;28;20197;-61
2022/05/26 09:54:30;;;;;;;5.57;2.67;;;;;;;;;;4992706;28;20632;-61
2022/05/26 09:56:56;;;;;;;3.92;2.28;;;;;;;;;;4982168;28;20190;-61
2022/05/26 09:59:34;;;;;;;3.97;2.85;;;;;;;;;;4999018;28;20223;-60
2022/05/26 10:02:14;;;;;;;5.80;2.55;;;;;;;;;;4992645;28;20175;-60
2022/05/26 10:05:12;;;;;;;4.25;2.45;;;;;;;;;;4995849;28;20233;-60
2022/05/26 10:07:44;;;;;;;5.50;2.20;;;;;;;;;;4966553;28;20202;-60
2022/05/26 10:10:29;;;;;;;5.70;2.85;;;;;;;;;;4991736;28;20265;-60
2022/05/26 10:13:13;;;;;;;5.28;2.28;;;;;;;;;;4989953;28;20762;-61
2022/05/26 10:15:45;;;;;;;8.25;2.65;;;;;;;;;;4990567;28;20212;-61
2022/05/26 10:18:11;;;;;;;5.22;2.42;;;;;;;;;;4994415;28;20185;-61
2022/05/26 10:20:49;;;;;;;5.38;2.30;;;;;;;;;;4995348;28;20197;-61
2022/05/26 10:23:24;;;;;;;5.22;2.20;;;;;;;;;;4994284;28;20579;-60
2022/05/26 10:25:56;;;;;;;3.42;2.25;;;;;;;;;;4990747;28;20206;-61
2022/05/26 10:28:25;;;;;;;4.75;2.33;;;;;;;;;;4989394;28;20644;-61
2022/05/26 10:31:11;;;;;;;6.10;2.40;;;;;;;;;;4994215;28;20225;-61
2022/05/26 10:33:40;;;;;;;2.97;1.92;;;;;;;;;;4994530;28;20644;-61
2022/05/26 10:36:13;;;;;;;3.65;2.10;;;;;;;;;;4984624;28;20197;-60
2022/05/26 10:38:39;;;;;;;4.60;2.30;;;;;;;;;;4997038;28;20193;-60
2022/05/26 10:41:08;;;;;;;4.35;2.03;;;;;;;;;;4993862;28;20659;-61
2022/05/26 10:43:37;;;;;;;3.58;2.17;;;;;;;;;;4977220;28;20198;-61
2022/05/26 10:46:06;;;;;;;3.20;2.20;;;;;;;;;;4994864;28;20582;-60
2022/05/26 10:48:51;;;;;;;3.28;2.10;;;;;;;;;;4997456;28;20305;-61
2022/05/26 10:51:18;;;;;;;4.45;2.20;;;;;;;;;;5000376;28;20304;-61
2022/05/26 10:53:47;;;;;;;3.03;1.90;;;;;;;;;;4994192;28;20550;-60
2022/05/26 10:56:19;;;;;;;4.90;1.90;;;;;;;;;;4996582;28;20187;-61
2022/05/26 10:58:47;;;;;;;2.15;1.67;;;;;;;;;;4997097;28;20851;-60
2022/05/26 11:01:36;;;;;;;2.08;1.60;;;;;;;;;;4990866;28;20189;-60
2022/05/26 11:04:12;;;;;;;4.35;2.17;;;;;;;;;;4982592;28;20601;-60
2022/05/26 11:06:38;;;;;;;4.03;2.30;;;;;;;;;;4994593;28;20260;-61
2022/05/26 11:09:09;;;;;;;4.15;2.30;;;;;;;;;;5003996;28;20191;-60
2022/05/26 11:11:37;;;;;;;5.82;2.33;;;;;;;;;;4992008;28;20197;-60
2022/05/26 11:17:21;;;;;;;3.85;2.10;;;;;;;;;;4992126;28;20332;-60
2022/05/26 11:19:49;;;;;;;3.70;1.98;;;;;;;;;;4996718;28;20224;-60
2022/05/26 11:22:15;;;;;;;5.00;1.95;;;;;;;;;;4998682;28;20182;-61
2022/05/26 11:24:42;;;;;;;2.47;1.80;;;;;;;;;;4989342;28;20276;-60
2022/05/26 11:27:12;;;;;;;3.25;1.92;;;;;;;;;;5003200;28;20225;-60
2022/05/26 11:29:44;;;;;;;3.40;1.83;;;;;;;;;;4999602;28;20183;-61
2022/05/26 11:38:14;;;;;;;4.57;2.08;;;;;;;;;;4995479;28;20197;-61
2022/05/26 11:41:06;;;;;;;4.40;2.00;;;;;;;;;;4995921;28;20666;-60
2022/05/26 11:43:33;;;;;;;3.78;2.15;;;;;;;;;;4992042;28;20257;-60
2022/05/26 11:45:59;;;;;;;4.72;2.30;;;;;;;;;;4994165;28;20217;-60
2022/05/26 11:48:31;;;;;;;4.00;2.35;;;;;;;;;;4998808;28;20602;-60
2022/05/26 11:50:58;;;;;;;4.20;2.30;;;;;;;;;;4993572;28;20205;-60
2022/05/26 11:53:27;;;;;;;3.00;2.38;;;;;;;;;;4996417;28;20275;-60
2022/05/26 11:55:58;;;;;;;3.75;2.45;;;;;;;;;;4994352;28;20273;-60
2022/05/26 11:58:31;;;;;;;4.60;2.28;;;;;;;;;;4997597;28;20217;-60
2022/05/26 12:01:15;;;;;;;5.00;2.40;;;;;;;;;;4994053;28;20205;-60
2022/05/26 12:03:53;;;;;;;3.05;2.10;;;;;;;;;;4995940;28;20229;-60
2022/05/26 12:06:33;;;;;;;4.07;2.20;;;;;;;;;;4995363;28;20275;-60
2022/05/26 12:09:03;;;;;;;3.05;2.42;;;;;;;;;;4993766;28;20216;-60
2022/05/26 12:11:48;;;;;;;4.07;2.10;;;;;;;;;;4997032;28;20186;-60
2022/05/26 12:14:20;;;;;;;5.70;2.58;;;;;;;;;;4991949;28;20193;-60
2022/05/26 12:16:46;;;;;;;3.15;2.28;;;;;;;;;;4983148;28;20616;-60
2022/05/26 12:19:12;;;;;;;3.22;2.25;;;;;;;;;;4994533;28;20217;-60
2022/05/26 12:21:39;;;;;;;3.85;2.33;;;;;;;;;;4991554;28;20278;-60
2022/05/26 12:24:28;;;;;;;3.35;2.00;;;;;;;;;;4991492;28;20174;-60
2022/05/26 12:26:55;;;;;;;4.10;2.55;;;;;;;;;;4995991;28;20259;-60
2022/05/26 12:30:01;;;;;;;3.80;2.25;;;;;;;;;;4994413;28;20175;-60
2022/05/26 12:32:28;;;;;;;3.28;2.40;;;;;;;;;;4941722;28;20364;-60
2022/05/26 12:35:13;;;;;;;5.55;2.08;;;;;;;;;;4941338;28;20199;-60
2022/05/26 12:37:47;;;;;;;4.03;2.22;;;;;;;;;;4972589;28;20333;-60
2022/05/26 12:40:28;;;;;;;4.75;2.42;;;;;;;;;;4999034;28;20200;-59
2022/05/26 12:42:54;;;;;;;4.25;2.20;;;;;;;;;;4987204;28;20955;-60
2022/05/26 12:45:23;;;;;;;3.55;2.20;;;;;;;;;;4986990;28;20214;-60
2022/05/26 12:48:09;;;;;;;4.32;2.25;;;;;;;;;;4992974;28;20198;-60
2022/05/26 12:50:42;;;;;;;3.80;2.40;;;;;;;;;;4992106;28;20197;-60
2022/05/26 12:53:27;;;;;;;2.80;2.28;;;;;;;;;;4989928;28;20189;-60
2022/05/26 12:55:58;;;;;;;3.00;2.35;;;;;;;;;;4996372;28;20194;-60
2022/05/26 12:58:27;;;;;;;4.68;2.30;;;;;;;;;;4997113;28;20627;-61
2022/05/26 13:00:56;;;;;;;3.50;2.33;;;;;;;;;;4994990;28;20198;-60
2022/05/26 13:03:31;;;;;;;4.03;2.30;;;;;;;;;;4990901;28;20603;-60
2022/05/26 13:05:58;;;;;;;5.95;2.30;;;;;;;;;;4994561;28;20240;-61
2022/05/26 13:08:24;;;;;;;2.45;2.03;;;;;;;;;;4989696;28;20182;-61
2022/05/26 13:10:51;;;;;;;2.90;2.03;;;;;;;;;;5001437;28;20183;-61
2022/05/26 13:13:21;;;;;;;3.47;2.15;;;;;;;;;;4992068;28;20186;-61
2022/05/26 13:15:47;;;;;;;2.85;2.00;;;;;;;;;;4993235;28;20189;-61
2022/05/26 13:18:23;;;;;;;4.10;2.20;;;;;;;;;;4995693;28;20193;-60
2022/05/26 13:20:49;;;;;;;2.92;2.08;;;;;;;;;;4995794;28;20189;-60
2022/05/26 13:23:31;;;;;;;4.43;2.67;;;;;;;;;;4972708;28;20189;-60
2022/05/26 13:26:01;;;;;;;6.35;2.78;;;;;;;;;;4983991;28;20203;-59
2022/05/26 13:28:31;;;;;;;5.40;2.83;;;;;;;;;;4978210;28;20568;-58
2022/05/26 13:33:42;;;;;;;4.22;2.53;;;;;;;;;;4983412;28;20580;-59
2022/05/26 13:36:08;;;;;;;3.50;2.60;;;;;;;;;;4985809;28;20189;-57
2022/05/26 13:38:35;;;;;;;5.30;2.72;;;;;;;;;;4996061;28;20849;-60
2022/05/26 13:41:02;;;;;;;2.60;2.40;;;;;;;;;;4983090;28;20178;-59
2022/05/26 13:43:29;;;;;;;11.88;3.13;;;;;;;;;;4980682;28;20233;-60
2022/05/26 13:45:56;;;;;;;4.32;3.00;;;;;;;;;;4968908;28;20320;-54
2022/05/26 13:48:42;;;;;;;4.13;2.50;;;;;;;;;;4984215;28;20239;-55
2022/05/26 13:51:24;;;;;;;4.72;2.83;;;;;;;;;;4985126;28;20182;-62
2022/05/26 13:53:51;;;;;;;5.10;2.83;;;;;;;;;;4981005;28;20844;-58
2022/05/26 13:56:22;;;;;;;4.80;2.58;;;;;;;;;;4974322;28;20193;-58
2022/05/26 13:58:48;;;;;;;7.53;2.95;;;;;;;;;;4981187;28;22168;-58
2022/05/26 14:01:14;;;;;;;7.07;3.10;;;;;;;;;;4971258;28;20200;-56
2022/05/26 14:03:41;;;;;;;3.80;2.75;;;;;;;;;;4970775;28;20237;-57
2022/05/26 14:06:26;;;;;;;7.28;2.80;;;;;;;;;;4981108;28;20206;-57
2022/05/26 14:08:52;;;;;;;5.15;2.83;;;;;;;;;;4985940;28;20181;-56
2022/05/26 14:11:48;;;;;;;5.57;2.70;;;;;;;;;;4978159;28;20185;-57
2022/05/26 14:14:29;;;;;;;5.55;2.65;;;;;;;;;;4980950;28;20601;-60
2022/05/26 14:16:55;;;;;;;4.25;2.50;;;;;;;;;;4993979;28;20204;-60
2022/05/26 14:19:23;;;;;;;4.55;2.80;;;;;;;;;;4987003;28;20178;-60
2022/05/26 14:21:49;;;;;;;6.95;2.35;;;;;;;;;;4995470;28;20193;-60
2022/05/26 14:24:15;;;;;;;4.75;3.05;;;;;;;;;;4996931;28;20231;-59
2022/05/26 14:26:44;;;;;;;3.63;2.33;;;;;;;;;;4989679;28;20210;-61
2022/05/26 14:29:30;;;;;;;4.55;2.80;;;;;;;;;;4996804;28;20252;-60
2022/05/26 14:32:00;;;;;;;4.53;2.40;;;;;;;;;;5000663;28;21234;-59
2022/05/26 14:34:31;;;;;;;4.78;2.50;;;;;;;;;;5000937;28;20198;-60
2022/05/26 14:36:58;;;;;;;3.35;2.47;;;;;;;;;;4991968;28;20208;-60
2022/05/26 14:39:24;;;;;;;8.60;3.33;;;;;;;;;;4989951;28;20205;-60
2022/05/26 14:41:50;;;;;;;3.80;2.30;;;;;;;;;;4992083;28;20631;-60
2022/05/26 14:44:16;;;;;;;4.35;2.15;;;;;;;;;;4995134;28;20177;-60
2022/05/26 14:46:45;;;;;;;4.80;2.40;;;;;;;;;;4996116;28;20670;-60
2022/05/26 14:49:11;;;;;;;4.43;2.35;;;;;;;;;;5000070;28;20175;-60
2022/05/26 14:51:37;;;;;;;3.17;2.25;;;;;;;;;;4996360;28;20252;-60
2022/05/26 14:56:48;;;;;;;3.03;2.60;;;;;;;;;;4993478;28;20209;-60
2022/05/26 14:59:14;;;;;;;3.20;2.42;;;;;;;;;;4996995;28;20198;-60
2022/05/26 15:01:40;;;;;;;4.57;2.33;;;;;;;;;;4993458;28;20193;-60
2022/05/26 15:04:06;;;;;;;4.28;2.50;;;;;;;;;;4994107;28;20248;-60
2022/05/26 15:06:38;;;;;;;6.00;2.50;;;;;;;;;;5004587;28;20202;-60
2022/05/26 15:09:06;;;;;;;5.18;2.20;;;;;;;;;;4996386;28;20178;-60
2022/05/26 15:11:32;;;;;;;3.28;2.10;;;;;;;;;;4998292;28;20189;-59
2022/05/26 15:13:58;;;;;;;4.05;2.33;;;;;;;;;;4997809;28;20189;-60
2022/05/26 15:16:24;;;;;;;3.85;2.10;;;;;;;;;;4999373;28;20192;-60
2022/05/26 15:18:51;;;;;;;4.50;2.33;;;;;;;;;;4993704;28;20190;-60
2022/05/26 15:21:17;;;;;;;4.68;2.20;;;;;;;;;;4997575;28;20216;-60
2022/05/26 15:23:43;;;;;;;6.28;2.20;;;;;;;;;;5000405;28;20272;-60
2022/05/26 15:26:11;;;;;;;4.45;2.45;;;;;;;;;;4997889;28;20290;-60
2022/05/26 15:28:37;;;;;;;3.65;2.30;;;;;;;;;;4997844;28;20206;-60
2022/05/26 15:31:03;;;;;;;5.25;2.10;;;;;;;;;;4993225;28;20276;-60
2022/05/26 15:33:29;;;;;;;3.08;1.98;;;;;;;;;;5003979;28;20385;-61
2022/05/26 15:35:55;;;;;;;3.53;2.13;;;;;;;;;;5001881;28;20183;-60
2022/05/26 15:38:21;;;;;;;5.45;2.50;;;;;;;;;;5005561;28;20759;-60